createdAt,value
2022-08-22T19:49:50.932Z,18.96
2022-08-22T19:52:24.010Z,19.17
2022-08-22T19:55:30.953Z,19.27
2022-08-22T19:58:08.198Z,19.33
2022-08-22T20:00:51.543Z,19.35
2022-08-22T20:03:22.954Z,19.47
2022-08-22T20:06:13.766Z,19.51
2022-08-22T20:09:11.854Z,19.53
2022-08-22T20:12:02.464Z,19.49
2022-08-22T20:14:36.129Z,19.44
2022-08-22T20:17:21.521Z,19.48
2022-08-22T20:22:49.085Z,19.45
2022-08-22T20:25:42.256Z,19.38
2022-08-22T20:28:26.091Z,19.30
2022-08-22T20:31:00.536Z,19.36
2022-08-22T20:33:38.620Z,19.32
2022-08-22T20:36:18.614Z,19.36
2022-08-22T20:39:10.966Z,19.39
2022-08-22T20:41:43.796Z,19.30
2022-08-22T20:44:18.467Z,19.34
2022-08-22T20:46:55.260Z,19.26
2022-08-22T20:49:46.824Z,19.30
2022-08-22T20:52:19.711Z,19.36
2022-08-22T20:54:58.143Z,19.26
2022-08-22T20:57:32.049Z,19.29
2022-08-22T21:00:24.012Z,19.26
2022-08-22T21:03:09.139Z,19.34
2022-08-22T21:05:41.957Z,19.36
2022-08-22T21:08:29.016Z,19.37
2022-08-22T21:11:20.604Z,19.38
2022-08-22T21:13:52.911Z,19.38
2022-08-22T21:16:33.430Z,19.35
2022-08-22T21:19:03.497Z,19.43
2022-08-22T21:21:34.058Z,19.48
2022-08-22T21:24:11.324Z,19.52
2022-08-22T21:26:56.621Z,19.44
2022-08-22T21:29:33.968Z,19.49
2022-08-22T21:32:30.687Z,19.48
2022-08-22T21:35:01.660Z,19.42
2022-08-22T21:37:39.985Z,19.47
2022-08-22T21:40:18.542Z,19.43
2022-08-22T21:43:07.928Z,19.44
2022-08-22T21:45:44.440Z,19.45
2022-08-22T21:48:36.062Z,19.40
2022-08-22T21:51:43.446Z,19.37
2022-08-22T21:54:40.260Z,19.41
2022-08-22T21:57:13.841Z,19.37
2022-08-22T21:59:58.916Z,19.43
2022-08-22T22:02:40.280Z,19.29
2022-08-22T22:05:15.987Z,19.26
2022-08-22T22:07:46.339Z,19.24
2022-08-22T22:10:16.574Z,19.36
2022-08-22T22:12:46.405Z,19.29
2022-08-22T22:15:27.264Z,19.37
2022-08-22T22:17:58.208Z,19.30
2022-08-22T22:20:27.728Z,19.28
2022-08-22T22:22:58.110Z,19.25
2022-08-22T22:25:40.286Z,19.38
2022-08-22T22:28:29.881Z,19.44
2022-08-22T22:30:56.833Z,19.23
2022-08-22T22:33:31.602Z,19.24
2022-08-22T22:36:08.831Z,19.19
2022-08-22T22:38:40.089Z,19.21
2022-08-22T22:41:08.088Z,19.28
2022-08-22T22:43:35.205Z,19.40
2022-08-22T22:46:11.176Z,19.28
2022-08-22T22:48:39.810Z,19.24
2022-08-22T22:51:09.463Z,19.25
2022-08-22T22:53:45.801Z,19.36
2022-08-22T22:56:22.358Z,19.32
2022-08-22T22:59:00.696Z,19.26
2022-08-22T23:02:01.538Z,19.45
2022-08-22T23:04:29.482Z,19.45
2022-08-22T23:07:08.356Z,19.33
2022-08-22T23:09:44.905Z,19.30
2022-08-22T23:12:13.367Z,19.28
2022-08-22T23:14:48.887Z,19.21
2022-08-22T23:17:24.620Z,19.22
2022-08-22T23:19:57.644Z,19.19
2022-08-22T23:22:28.342Z,19.18
2022-08-22T23:24:59.054Z,19.15
2022-08-22T23:27:26.428Z,19.16
2022-08-22T23:29:53.710Z,19.12
2022-08-22T23:32:26.610Z,19.20
2022-08-22T23:34:56.985Z,19.22
2022-08-22T23:37:23.991Z,19.14
2022-08-22T23:39:51.248Z,19.11
2022-08-22T23:42:20.972Z,19.04
2022-08-22T23:44:51.188Z,19.03
2022-08-22T23:47:21.009Z,19.01
2022-08-22T23:49:58.398Z,19.01
2022-08-22T23:52:32.465Z,19.07
2022-08-22T23:55:15.984Z,19.16
